Terminal Aerodrome Forecast
Issued by NWS

Home | Current Version | Previous Version | Graphics & Text | Print | Product List | Glossary On
Versions: 1 2 3 4 5 6 7 8 9 10 11 12 13 14 15 16 17 18 19 20 21 22 23 24 25 26 27 28 29 30 31 32 33
000
FTUS43 KGRB 201100
TAFRHI
TAF
KRHI 201131Z 2012/2112 29010G17KT P6SM SCT020 BKN035
      TEMPO 2012/2016 3SM -SHSN BKN020
     FM201600 28010G19KT P6SM SCT025 BKN040
      TEMPO 2016/2019 -SHSN BKN025
     FM202300 28005KT P6SM SCT040=

USA.gov is the U.S. government's official web portal to all federal, state and local government web resources and services.